sensor_id;sensor_type;location;lat;lon;timestamp;P1;durP1;ratioP1;P2;durP2;ratioP2
54795;SDS011;40693;43.884;20.340;2023-07-16T00:01:36;14.30;;;10.82;;
54795;SDS011;40693;43.884;20.340;2023-07-16T00:04:02;16.48;;;10.95;;
54795;SDS011;40693;43.884;20.340;2023-07-16T00:06:27;14.35;;;10.98;;
54795;SDS011;40693;43.884;20.340;2023-07-16T00:08:53;15.30;;;10.85;;
54795;SDS011;40693;43.884;20.340;2023-07-16T00:11:22;12.55;;;9.95;;
54795;SDS011;40693;43.884;20.340;2023-07-16T00:13:48;12.80;;;10.43;;
54795;SDS011;40693;43.884;20.340;2023-07-16T00:16:14;19.45;;;11.05;;
54795;SDS011;40693;43.884;20.340;2023-07-16T00:18:41;13.18;;;10.52;;
54795;SDS011;40693;43.884;20.340;2023-07-16T00:21:09;13.93;;;10.82;;
54795;SDS011;40693;43.884;20.340;2023-07-16T00:23:35;12.98;;;10.98;;
54795;SDS011;40693;43.884;20.340;2023-07-16T00:26:01;13.65;;;9.70;;
54795;SDS011;40693;43.884;20.340;2023-07-16T00:28:27;15.55;;;9.88;;
54795;SDS011;40693;43.884;20.340;2023-07-16T00:30:54;11.88;;;10.18;;
54795;SDS011;40693;43.884;20.340;2023-07-16T00:33:19;13.98;;;10.85;;
54795;SDS011;40693;43.884;20.340;2023-07-16T00:35:49;11.52;;;10.15;;
54795;SDS011;40693;43.884;20.340;2023-07-16T00:38:18;13.25;;;11.38;;
54795;SDS011;40693;43.884;20.340;2023-07-16T00:40:45;13.50;;;10.93;;
54795;SDS011;40693;43.884;20.340;2023-07-16T00:43:11;12.82;;;10.38;;
54795;SDS011;40693;43.884;20.340;2023-07-16T00:45:38;16.45;;;11.40;;
54795;SDS011;40693;43.884;20.340;2023-07-16T00:48:05;12.57;;;11.05;;
54795;SDS011;40693;43.884;20.340;2023-07-16T00:50:32;13.43;;;10.77;;
54795;SDS011;40693;43.884;20.340;2023-07-16T00:53:00;12.98;;;9.82;;
54795;SDS011;40693;43.884;20.340;2023-07-16T00:55:26;13.88;;;11.10;;
54795;SDS011;40693;43.884;20.340;2023-07-16T00:57:54;14.88;;;11.02;;
54795;SDS011;40693;43.884;20.340;2023-07-16T01:00:22;14.20;;;10.80;;
54795;SDS011;40693;43.884;20.340;2023-07-16T01:02:48;13.48;;;11.57;;
54795;SDS011;40693;43.884;20.340;2023-07-16T01:05:14;14.38;;;11.73;;
54795;SDS011;40693;43.884;20.340;2023-07-16T01:07:40;12.40;;;11.10;;
54795;SDS011;40693;43.884;20.340;2023-07-16T01:10:13;14.65;;;10.82;;
54795;SDS011;40693;43.884;20.340;2023-07-16T01:12:39;16.75;;;11.88;;
54795;SDS011;40693;43.884;20.340;2023-07-16T01:15:05;15.02;;;10.40;;
54795;SDS011;40693;43.884;20.340;2023-07-16T01:17:31;22.27;;;11.13;;
54795;SDS011;40693;43.884;20.340;2023-07-16T01:19:57;13.52;;;9.85;;
54795;SDS011;40693;43.884;20.340;2023-07-16T01:22:44;13.38;;;10.20;;
54795;SDS011;40693;43.884;20.340;2023-07-16T01:30:59;13.60;;;11.18;;
54795;SDS011;40693;43.884;20.340;2023-07-16T01:33:25;13.32;;;10.63;;
54795;SDS011;40693;43.884;20.340;2023-07-16T01:35:52;16.23;;;10.98;;
54795;SDS011;40693;43.884;20.340;2023-07-16T01:38:18;13.77;;;11.18;;
54795;SDS011;40693;43.884;20.340;2023-07-16T01:40:46;13.73;;;11.27;;
54795;SDS011;40693;43.884;20.340;2023-07-16T01:43:12;15.10;;;11.65;;
54795;SDS011;40693;43.884;20.340;2023-07-16T01:45:38;12.75;;;11.30;;
54795;SDS011;40693;43.884;20.340;2023-07-16T01:48:07;14.50;;;11.07;;
54795;SDS011;40693;43.884;20.340;2023-07-16T01:50:46;16.00;;;12.13;;
54795;SDS011;40693;43.884;20.340;2023-07-16T01:53:12;15.38;;;10.65;;
54795;SDS011;40693;43.884;20.340;2023-07-16T01:55:38;17.73;;;10.25;;
54795;SDS011;40693;43.884;20.340;2023-07-16T01:58:04;14.85;;;11.10;;
54795;SDS011;40693;43.884;20.340;2023-07-16T02:00:30;12.60;;;10.45;;
54795;SDS011;40693;43.884;20.340;2023-07-16T02:02:56;13.18;;;9.75;;
54795;SDS011;40693;43.884;20.340;2023-07-16T02:05:22;12.90;;;10.77;;
54795;SDS011;40693;43.884;20.340;2023-07-16T02:07:48;12.90;;;10.68;;
54795;SDS011;40693;43.884;20.340;2023-07-16T02:10:14;14.80;;;10.70;;
54795;SDS011;40693;43.884;20.340;2023-07-16T02:12:39;14.30;;;11.05;;
54795;SDS011;40693;43.884;20.340;2023-07-16T02:15:05;19.27;;;11.10;;
54795;SDS011;40693;43.884;20.340;2023-07-16T02:17:31;14.45;;;11.23;;
54795;SDS011;40693;43.884;20.340;2023-07-16T02:19:57;13.70;;;11.57;;
54795;SDS011;40693;43.884;20.340;2023-07-16T02:22:41;15.18;;;11.35;;
54795;SDS011;40693;43.884;20.340;2023-07-16T02:25:07;13.30;;;11.07;;
54795;SDS011;40693;43.884;20.340;2023-07-16T02:27:33;16.23;;;11.20;;
54795;SDS011;40693;43.884;20.340;2023-07-16T02:29:59;12.65;;;11.35;;
54795;SDS011;40693;43.884;20.340;2023-07-16T02:32:25;11.13;;;9.95;;
54795;SDS011;40693;43.884;20.340;2023-07-16T02:34:51;16.17;;;11.52;;
54795;SDS011;40693;43.884;20.340;2023-07-16T02:37:16;13.15;;;11.52;;
54795;SDS011;40693;43.884;20.340;2023-07-16T02:39:44;13.50;;;10.07;;
54795;SDS011;40693;43.884;20.340;2023-07-16T02:42:11;14.20;;;11.27;;
54795;SDS011;40693;43.884;20.340;2023-07-16T02:44:37;16.13;;;11.30;;
54795;SDS011;40693;43.884;20.340;2023-07-16T02:47:07;12.80;;;11.07;;
54795;SDS011;40693;43.884;20.340;2023-07-16T02:49:33;17.52;;;11.23;;
54795;SDS011;40693;43.884;20.340;2023-07-16T02:51:59;13.32;;;10.63;;
54795;SDS011;40693;43.884;20.340;2023-07-16T02:54:24;16.10;;;13.65;;
54795;SDS011;40693;43.884;20.340;2023-07-16T02:56:50;15.85;;;11.57;;
54795;SDS011;40693;43.884;20.340;2023-07-16T02:59:16;16.20;;;11.73;;
54795;SDS011;40693;43.884;20.340;2023-07-16T03:01:42;15.82;;;12.82;;
54795;SDS011;40693;43.884;20.340;2023-07-16T03:04:07;12.60;;;10.35;;
54795;SDS011;40693;43.884;20.340;2023-07-16T03:06:33;13.60;;;10.98;;
54795;SDS011;40693;43.884;20.340;2023-07-16T03:08:59;14.10;;;11.32;;
54795;SDS011;40693;43.884;20.340;2023-07-16T03:11:24;13.77;;;11.20;;
54795;SDS011;40693;43.884;20.340;2023-07-16T03:13:50;14.82;;;11.52;;
54795;SDS011;40693;43.884;20.340;2023-07-16T03:16:16;12.70;;;11.30;;
54795;SDS011;40693;43.884;20.340;2023-07-16T03:18:44;13.52;;;11.48;;
54795;SDS011;40693;43.884;20.340;2023-07-16T03:21:10;12.93;;;11.18;;
54795;SDS011;40693;43.884;20.340;2023-07-16T03:23:36;14.13;;;11.70;;
54795;SDS011;40693;43.884;20.340;2023-07-16T03:26:02;14.43;;;11.68;;
54795;SDS011;40693;43.884;20.340;2023-07-16T03:28:28;14.95;;;12.13;;
54795;SDS011;40693;43.884;20.340;2023-07-16T03:30:53;13.85;;;12.38;;
54795;SDS011;40693;43.884;20.340;2023-07-16T03:33:19;16.83;;;12.48;;
54795;SDS011;40693;43.884;20.340;2023-07-16T03:35:46;17.10;;;12.30;;
54795;SDS011;40693;43.884;20.340;2023-07-16T03:38:12;20.10;;;12.32;;
54795;SDS011;40693;43.884;20.340;2023-07-16T03:40:39;14.82;;;12.30;;
54795;SDS011;40693;43.884;20.340;2023-07-16T03:43:05;12.10;;;10.43;;
54795;SDS011;40693;43.884;20.340;2023-07-16T03:45:31;12.88;;;10.60;;
54795;SDS011;40693;43.884;20.340;2023-07-16T03:47:57;14.80;;;11.20;;
54795;SDS011;40693;43.884;20.340;2023-07-16T03:50:22;15.77;;;12.63;;
54795;SDS011;40693;43.884;20.340;2023-07-16T03:52:48;13.75;;;11.23;;
54795;SDS011;40693;43.884;20.340;2023-07-16T03:55:14;13.43;;;10.77;;
54795;SDS011;40693;43.884;20.340;2023-07-16T03:57:40;13.95;;;11.35;;
54795;SDS011;40693;43.884;20.340;2023-07-16T04:00:07;15.02;;;12.48;;
54795;SDS011;40693;43.884;20.340;2023-07-16T04:02:35;14.45;;;11.50;;
54795;SDS011;40693;43.884;20.340;2023-07-16T04:05:01;13.70;;;11.70;;
54795;SDS011;40693;43.884;20.340;2023-07-16T04:07:28;16.48;;;11.80;;
54795;SDS011;40693;43.884;20.340;2023-07-16T04:09:53;14.18;;;11.00;;
54795;SDS011;40693;43.884;20.340;2023-07-16T04:12:19;14.00;;;12.05;;
54795;SDS011;40693;43.884;20.340;2023-07-16T04:14:46;15.95;;;11.30;;
54795;SDS011;40693;43.884;20.340;2023-07-16T04:17:12;14.02;;;11.35;;
54795;SDS011;40693;43.884;20.340;2023-07-16T04:19:39;15.38;;;10.65;;
54795;SDS011;40693;43.884;20.340;2023-07-16T04:22:18;20.15;;;11.45;;
54795;SDS011;40693;43.884;20.340;2023-07-16T04:24:44;15.48;;;12.88;;
54795;SDS011;40693;43.884;20.340;2023-07-16T04:27:10;19.48;;;13.30;;
54795;SDS011;40693;43.884;20.340;2023-07-16T04:29:35;17.33;;;12.82;;
54795;SDS011;40693;43.884;20.340;2023-07-16T04:32:02;16.92;;;13.23;;
54795;SDS011;40693;43.884;20.340;2023-07-16T04:34:28;17.80;;;12.63;;
54795;SDS011;40693;43.884;20.340;2023-07-16T04:36:53;15.23;;;12.38;;
54795;SDS011;40693;43.884;20.340;2023-07-16T04:39:19;15.98;;;11.35;;
54795;SDS011;40693;43.884;20.340;2023-07-16T04:41:45;15.00;;;12.63;;
54795;SDS011;40693;43.884;20.340;2023-07-16T04:44:11;16.35;;;12.25;;
54795;SDS011;40693;43.884;20.340;2023-07-16T04:46:37;16.73;;;11.80;;
54795;SDS011;40693;43.884;20.340;2023-07-16T04:49:04;14.95;;;12.38;;
54795;SDS011;40693;43.884;20.340;2023-07-16T04:51:31;18.45;;;12.00;;
54795;SDS011;40693;43.884;20.340;2023-07-16T04:53:57;17.63;;;12.88;;
54795;SDS011;40693;43.884;20.340;2023-07-16T04:56:23;15.73;;;12.27;;
54795;SDS011;40693;43.884;20.340;2023-07-16T04:58:49;17.55;;;11.13;;
54795;SDS011;40693;43.884;20.340;2023-07-16T05:01:14;19.90;;;14.07;;
54795;SDS011;40693;43.884;20.340;2023-07-16T05:03:40;17.27;;;13.05;;
54795;SDS011;40693;43.884;20.340;2023-07-16T05:06:06;20.80;;;13.77;;
54795;SDS011;40693;43.884;20.340;2023-07-16T05:08:32;17.85;;;13.07;;
54795;SDS011;40693;43.884;20.340;2023-07-16T05:10:58;16.73;;;13.27;;
54795;SDS011;40693;43.884;20.340;2023-07-16T05:13:24;20.27;;;13.70;;
54795;SDS011;40693;43.884;20.340;2023-07-16T05:15:49;16.55;;;12.70;;
54795;SDS011;40693;43.884;20.340;2023-07-16T05:18:15;17.25;;;12.50;;
54795;SDS011;40693;43.884;20.340;2023-07-16T05:20:41;15.18;;;12.25;;
54795;SDS011;40693;43.884;20.340;2023-07-16T05:23:07;14.85;;;13.27;;
54795;SDS011;40693;43.884;20.340;2023-07-16T05:25:34;20.80;;;15.15;;
54795;SDS011;40693;43.884;20.340;2023-07-16T05:28:00;17.17;;;13.95;;
54795;SDS011;40693;43.884;20.340;2023-07-16T05:30:26;17.05;;;13.80;;
54795;SDS011;40693;43.884;20.340;2023-07-16T05:32:51;16.55;;;14.07;;
54795;SDS011;40693;43.884;20.340;2023-07-16T05:35:17;19.38;;;13.25;;
54795;SDS011;40693;43.884;20.340;2023-07-16T05:37:42;16.88;;;13.05;;
54795;SDS011;40693;43.884;20.340;2023-07-16T05:40:08;16.30;;;14.10;;
54795;SDS011;40693;43.884;20.340;2023-07-16T05:42:34;16.63;;;13.35;;
54795;SDS011;40693;43.884;20.340;2023-07-16T05:45:00;20.67;;;13.95;;
54795;SDS011;40693;43.884;20.340;2023-07-16T05:47:26;19.25;;;14.15;;
54795;SDS011;40693;43.884;20.340;2023-07-16T05:49:52;18.50;;;14.85;;
54795;SDS011;40693;43.884;20.340;2023-07-16T05:52:18;16.55;;;14.00;;
54795;SDS011;40693;43.884;20.340;2023-07-16T05:54:44;19.23;;;13.10;;
54795;SDS011;40693;43.884;20.340;2023-07-16T05:57:10;16.27;;;13.82;;
54795;SDS011;40693;43.884;20.340;2023-07-16T05:59:36;16.92;;;13.70;;
54795;SDS011;40693;43.884;20.340;2023-07-16T06:02:02;18.17;;;14.27;;
54795;SDS011;40693;43.884;20.340;2023-07-16T06:04:29;20.50;;;15.27;;
54795;SDS011;40693;43.884;20.340;2023-07-16T06:06:55;17.88;;;14.93;;
54795;SDS011;40693;43.884;20.340;2023-07-16T06:09:22;15.68;;;13.05;;
54795;SDS011;40693;43.884;20.340;2023-07-16T06:11:47;15.75;;;13.40;;
54795;SDS011;40693;43.884;20.340;2023-07-16T06:14:13;21.40;;;14.73;;
54795;SDS011;40693;43.884;20.340;2023-07-16T06:16:39;20.02;;;13.70;;
54795;SDS011;40693;43.884;20.340;2023-07-16T06:19:05;18.55;;;12.90;;
54795;SDS011;40693;43.884;20.340;2023-07-16T06:21:31;15.75;;;13.50;;
54795;SDS011;40693;43.884;20.340;2023-07-16T06:23:56;21.08;;;14.63;;
54795;SDS011;40693;43.884;20.340;2023-07-16T06:26:22;16.17;;;13.05;;
54795;SDS011;40693;43.884;20.340;2023-07-16T06:28:48;18.08;;;13.23;;
54795;SDS011;40693;43.884;20.340;2023-07-16T06:31:16;16.00;;;12.93;;
54795;SDS011;40693;43.884;20.340;2023-07-16T06:33:43;21.60;;;14.10;;
54795;SDS011;40693;43.884;20.340;2023-07-16T06:36:09;18.27;;;14.10;;
54795;SDS011;40693;43.884;20.340;2023-07-16T06:38:34;16.83;;;14.85;;
54795;SDS011;40693;43.884;20.340;2023-07-16T06:41:00;15.90;;;14.10;;
54795;SDS011;40693;43.884;20.340;2023-07-16T06:43:26;15.88;;;14.15;;
54795;SDS011;40693;43.884;20.340;2023-07-16T06:45:53;19.00;;;14.27;;
54795;SDS011;40693;43.884;20.340;2023-07-16T06:48:18;21.48;;;15.50;;
54795;SDS011;40693;43.884;20.340;2023-07-16T06:50:44;16.10;;;13.48;;
54795;SDS011;40693;43.884;20.340;2023-07-16T06:53:10;18.83;;;14.60;;
54795;SDS011;40693;43.884;20.340;2023-07-16T06:55:36;21.08;;;14.38;;
54795;SDS011;40693;43.884;20.340;2023-07-16T06:58:02;17.77;;;12.98;;
54795;SDS011;40693;43.884;20.340;2023-07-16T07:00:28;16.30;;;13.25;;
54795;SDS011;40693;43.884;20.340;2023-07-16T07:02:54;17.15;;;13.73;;
54795;SDS011;40693;43.884;20.340;2023-07-16T07:05:20;17.52;;;14.60;;
54795;SDS011;40693;43.884;20.340;2023-07-16T07:07:46;15.90;;;12.40;;
54795;SDS011;40693;43.884;20.340;2023-07-16T07:10:12;18.80;;;13.45;;
54795;SDS011;40693;43.884;20.340;2023-07-16T07:12:38;17.85;;;13.63;;
54795;SDS011;40693;43.884;20.340;2023-07-16T07:15:07;15.88;;;13.82;;
54795;SDS011;40693;43.884;20.340;2023-07-16T07:17:33;17.17;;;13.15;;
54795;SDS011;40693;43.884;20.340;2023-07-16T07:19:59;16.45;;;13.38;;
54795;SDS011;40693;43.884;20.340;2023-07-16T07:22:26;18.85;;;13.32;;
54795;SDS011;40693;43.884;20.340;2023-07-16T07:24:51;20.00;;;14.50;;
54795;SDS011;40693;43.884;20.340;2023-07-16T07:27:17;16.08;;;13.93;;
54795;SDS011;40693;43.884;20.340;2023-07-16T07:29:42;18.30;;;14.48;;
54795;SDS011;40693;43.884;20.340;2023-07-16T07:32:08;16.55;;;13.93;;
54795;SDS011;40693;43.884;20.340;2023-07-16T07:34:34;17.92;;;12.65;;
54795;SDS011;40693;43.884;20.340;2023-07-16T07:37:00;14.88;;;12.80;;
54795;SDS011;40693;43.884;20.340;2023-07-16T07:39:26;16.67;;;13.48;;
54795;SDS011;40693;43.884;20.340;2023-07-16T07:41:52;29.52;;;15.40;;
54795;SDS011;40693;43.884;20.340;2023-07-16T07:44:17;15.02;;;13.43;;
54795;SDS011;40693;43.884;20.340;2023-07-16T07:46:43;15.05;;;12.63;;
54795;SDS011;40693;43.884;20.340;2023-07-16T07:49:09;23.00;;;13.05;;
54795;SDS011;40693;43.884;20.340;2023-07-16T07:51:34;15.93;;;12.48;;
54795;SDS011;40693;43.884;20.340;2023-07-16T07:54:00;22.88;;;12.35;;
54795;SDS011;40693;43.884;20.340;2023-07-16T07:56:26;17.23;;;13.40;;
54795;SDS011;40693;43.884;20.340;2023-07-16T07:58:51;18.90;;;12.77;;
54795;SDS011;40693;43.884;20.340;2023-07-16T08:01:17;17.75;;;13.02;;
54795;SDS011;40693;43.884;20.340;2023-07-16T08:03:43;15.85;;;13.27;;
54795;SDS011;40693;43.884;20.340;2023-07-16T08:06:09;21.10;;;12.35;;
54795;SDS011;40693;43.884;20.340;2023-07-16T08:08:36;18.02;;;12.30;;
54795;SDS011;40693;43.884;20.340;2023-07-16T08:11:02;14.18;;;12.52;;
54795;SDS011;40693;43.884;20.340;2023-07-16T08:13:28;13.20;;;10.93;;
54795;SDS011;40693;43.884;20.340;2023-07-16T08:15:54;15.55;;;11.90;;
54795;SDS011;40693;43.884;20.340;2023-07-16T08:18:19;14.10;;;10.68;;
54795;SDS011;40693;43.884;20.340;2023-07-16T08:20:46;18.77;;;12.70;;
54795;SDS011;40693;43.884;20.340;2023-07-16T08:23:12;16.88;;;11.40;;
54795;SDS011;40693;43.884;20.340;2023-07-16T08:25:38;15.27;;;11.05;;
54795;SDS011;40693;43.884;20.340;2023-07-16T08:28:04;13.52;;;10.70;;
54795;SDS011;40693;43.884;20.340;2023-07-16T08:30:31;13.93;;;11.32;;
54795;SDS011;40693;43.884;20.340;2023-07-16T08:32:57;18.08;;;11.00;;
54795;SDS011;40693;43.884;20.340;2023-07-16T08:35:23;17.27;;;11.02;;
54795;SDS011;40693;43.884;20.340;2023-07-16T08:37:49;13.88;;;10.95;;
54795;SDS011;40693;43.884;20.340;2023-07-16T08:40:14;14.27;;;10.82;;
54795;SDS011;40693;43.884;20.340;2023-07-16T08:42:40;14.48;;;11.18;;
54795;SDS011;40693;43.884;20.340;2023-07-16T08:45:11;16.70;;;10.70;;
54795;SDS011;40693;43.884;20.340;2023-07-16T08:47:37;15.80;;;11.93;;
54795;SDS011;40693;43.884;20.340;2023-07-16T08:50:03;13.80;;;11.60;;
54795;SDS011;40693;43.884;20.340;2023-07-16T08:52:29;18.85;;;10.95;;
54795;SDS011;40693;43.884;20.340;2023-07-16T08:54:55;15.20;;;11.15;;
54795;SDS011;40693;43.884;20.340;2023-07-16T08:57:21;17.50;;;11.98;;
54795;SDS011;40693;43.884;20.340;2023-07-16T08:59:47;20.25;;;12.38;;
54795;SDS011;40693;43.884;20.340;2023-07-16T09:02:16;16.38;;;11.32;;
54795;SDS011;40693;43.884;20.340;2023-07-16T09:04:44;14.93;;;11.95;;
54795;SDS011;40693;43.884;20.340;2023-07-16T09:07:20;14.80;;;11.25;;
54795;SDS011;40693;43.884;20.340;2023-07-16T09:09:58;15.50;;;11.95;;
54795;SDS011;40693;43.884;20.340;2023-07-16T09:12:25;11.40;;;10.25;;
54795;SDS011;40693;43.884;20.340;2023-07-16T09:14:52;14.65;;;10.27;;
54795;SDS011;40693;43.884;20.340;2023-07-16T09:17:21;15.85;;;11.85;;
54795;SDS011;40693;43.884;20.340;2023-07-16T09:19:50;15.02;;;11.35;;
54795;SDS011;40693;43.884;20.340;2023-07-16T09:22:20;15.15;;;11.10;;
54795;SDS011;40693;43.884;20.340;2023-07-16T09:24:46;12.35;;;10.60;;
54795;SDS011;40693;43.884;20.340;2023-07-16T09:27:12;16.90;;;11.90;;
54795;SDS011;40693;43.884;20.340;2023-07-16T09:29:39;15.02;;;11.60;;
54795;SDS011;40693;43.884;20.340;2023-07-16T09:32:05;13.30;;;11.80;;
54795;SDS011;40693;43.884;20.340;2023-07-16T09:34:31;13.40;;;11.18;;
54795;SDS011;40693;43.884;20.340;2023-07-16T09:36:57;16.92;;;11.98;;
54795;SDS011;40693;43.884;20.340;2023-07-16T09:39:24;14.65;;;11.85;;
54795;SDS011;40693;43.884;20.340;2023-07-16T09:41:51;18.63;;;11.50;;
54795;SDS011;40693;43.884;20.340;2023-07-16T09:44:18;15.77;;;12.82;;
54795;SDS011;40693;43.884;20.340;2023-07-16T09:46:45;14.43;;;10.80;;
54795;SDS011;40693;43.884;20.340;2023-07-16T09:49:11;16.60;;;11.63;;
54795;SDS011;40693;43.884;20.340;2023-07-16T09:51:39;14.68;;;10.73;;
54795;SDS011;40693;43.884;20.340;2023-07-16T09:54:07;18.27;;;11.43;;
54795;SDS011;40693;43.884;20.340;2023-07-16T09:56:35;21.05;;;12.52;;
54795;SDS011;40693;43.884;20.340;2023-07-16T09:59:05;18.13;;;11.18;;
54795;SDS011;40693;43.884;20.340;2023-07-16T10:01:36;12.95;;;11.30;;
54795;SDS011;40693;43.884;20.340;2023-07-16T10:04:18;14.85;;;11.38;;
54795;SDS011;40693;43.884;20.340;2023-07-16T10:06:59;15.60;;;10.85;;
54795;SDS011;40693;43.884;20.340;2023-07-16T10:09:36;13.32;;;11.55;;
54795;SDS011;40693;43.884;20.340;2023-07-16T10:14:39;15.13;;;11.43;;
54795;SDS011;40693;43.884;20.340;2023-07-16T10:17:06;15.13;;;11.57;;
54795;SDS011;40693;43.884;20.340;2023-07-16T10:20:18;14.25;;;11.80;;
54795;SDS011;40693;43.884;20.340;2023-07-16T10:22:39;14.73;;;11.18;;
54795;SDS011;40693;43.884;20.340;2023-07-16T10:25:10;14.57;;;10.77;;
54795;SDS011;40693;43.884;20.340;2023-07-16T10:27:48;18.83;;;11.15;;
54795;SDS011;40693;43.884;20.340;2023-07-16T10:30:16;15.20;;;11.65;;
54795;SDS011;40693;43.884;20.340;2023-07-16T10:32:42;13.88;;;11.85;;
54795;SDS011;40693;43.884;20.340;2023-07-16T10:35:09;15.43;;;11.98;;
54795;SDS011;40693;43.884;20.340;2023-07-16T10:37:36;12.32;;;10.70;;
54795;SDS011;40693;43.884;20.340;2023-07-16T10:40:03;14.90;;;11.85;;
54795;SDS011;40693;43.884;20.340;2023-07-16T10:42:30;13.50;;;11.98;;
54795;SDS011;40693;43.884;20.340;2023-07-16T10:45:06;15.20;;;11.30;;
54795;SDS011;40693;43.884;20.340;2023-07-16T10:47:33;14.52;;;12.15;;
54795;SDS011;40693;43.884;20.340;2023-07-16T10:50:05;13.60;;;11.38;;
54795;SDS011;40693;43.884;20.340;2023-07-16T10:52:32;16.67;;;11.10;;
54795;SDS011;40693;43.884;20.340;2023-07-16T10:54:59;12.65;;;11.18;;
54795;SDS011;40693;43.884;20.340;2023-07-16T10:57:25;13.57;;;11.50;;
54795;SDS011;40693;43.884;20.340;2023-07-16T10:59:52;16.27;;;12.40;;
54795;SDS011;40693;43.884;20.340;2023-07-16T11:02:20;15.45;;;11.02;;
54795;SDS011;40693;43.884;20.340;2023-07-16T11:04:47;12.88;;;11.00;;
54795;SDS011;40693;43.884;20.340;2023-07-16T11:07:13;13.38;;;11.25;;
54795;SDS011;40693;43.884;20.340;2023-07-16T11:09:41;14.98;;;12.20;;
54795;SDS011;40693;43.884;20.340;2023-07-16T11:12:17;16.20;;;10.98;;
54795;SDS011;40693;43.884;20.340;2023-07-16T11:14:45;14.25;;;11.65;;
54795;SDS011;40693;43.884;20.340;2023-07-16T11:17:12;13.65;;;11.38;;
54795;SDS011;40693;43.884;20.340;2023-07-16T11:19:39;13.68;;;11.63;;
54795;SDS011;40693;43.884;20.340;2023-07-16T11:22:08;16.02;;;11.82;;
54795;SDS011;40693;43.884;20.340;2023-07-16T11:24:38;12.50;;;11.05;;
54795;SDS011;40693;43.884;20.340;2023-07-16T11:27:04;12.13;;;10.68;;
54795;SDS011;40693;43.884;20.340;2023-07-16T11:29:34;12.52;;;10.85;;
54795;SDS011;40693;43.884;20.340;2023-07-16T11:32:01;16.05;;;11.73;;
54795;SDS011;40693;43.884;20.340;2023-07-16T11:34:27;14.55;;;12.40;;
54795;SDS011;40693;43.884;20.340;2023-07-16T11:36:53;14.65;;;12.07;;
54795;SDS011;40693;43.884;20.340;2023-07-16T11:39:19;12.20;;;10.68;;
54795;SDS011;40693;43.884;20.340;2023-07-16T11:41:57;13.10;;;10.75;;
54795;SDS011;40693;43.884;20.340;2023-07-16T11:44:23;12.85;;;11.05;;
54795;SDS011;40693;43.884;20.340;2023-07-16T11:46:49;13.60;;;10.77;;
54795;SDS011;40693;43.884;20.340;2023-07-16T11:49:15;12.98;;;10.95;;
54795;SDS011;40693;43.884;20.340;2023-07-16T11:51:41;14.05;;;11.32;;
54795;SDS011;40693;43.884;20.340;2023-07-16T11:54:09;12.13;;;10.82;;
54795;SDS011;40693;43.884;20.340;2023-07-16T11:56:36;12.82;;;11.00;;
54795;SDS011;40693;43.884;20.340;2023-07-16T11:59:02;12.50;;;10.82;;
54795;SDS011;40693;43.884;20.340;2023-07-16T12:01:27;10.32;;;9.23;;
54795;SDS011;40693;43.884;20.340;2023-07-16T12:03:53;11.15;;;10.05;;
54795;SDS011;40693;43.884;20.340;2023-07-16T12:06:19;11.60;;;10.00;;
54795;SDS011;40693;43.884;20.340;2023-07-16T12:08:46;15.93;;;10.43;;
54795;SDS011;40693;43.884;20.340;2023-07-16T12:11:12;13.43;;;10.13;;
54795;SDS011;40693;43.884;20.340;2023-07-16T12:13:38;16.33;;;11.88;;
54795;SDS011;40693;43.884;20.340;2023-07-16T12:16:04;14.52;;;10.75;;
54795;SDS011;40693;43.884;20.340;2023-07-16T12:18:30;13.35;;;10.27;;
54795;SDS011;40693;43.884;20.340;2023-07-16T12:20:56;13.23;;;9.32;;
54795;SDS011;40693;43.884;20.340;2023-07-16T12:23:22;11.38;;;10.18;;
54795;SDS011;40693;43.884;20.340;2023-07-16T12:25:48;10.55;;;9.05;;
54795;SDS011;40693;43.884;20.340;2023-07-16T12:28:15;11.32;;;9.63;;
54795;SDS011;40693;43.884;20.340;2023-07-16T12:30:41;12.80;;;10.20;;
54795;SDS011;40693;43.884;20.340;2023-07-16T12:33:07;12.23;;;10.00;;
54795;SDS011;40693;43.884;20.340;2023-07-16T12:35:32;11.57;;;9.82;;
54795;SDS011;40693;43.884;20.340;2023-07-16T12:37:58;12.40;;;8.13;;
54795;SDS011;40693;43.884;20.340;2023-07-16T12:40:25;10.40;;;7.78;;
54795;SDS011;40693;43.884;20.340;2023-07-16T12:42:51;10.70;;;9.60;;
54795;SDS011;40693;43.884;20.340;2023-07-16T12:45:17;10.48;;;8.52;;
54795;SDS011;40693;43.884;20.340;2023-07-16T12:47:42;10.32;;;8.43;;
54795;SDS011;40693;43.884;20.340;2023-07-16T12:50:08;10.75;;;8.43;;
54795;SDS011;40693;43.884;20.340;2023-07-16T12:52:34;13.77;;;9.80;;
54795;SDS011;40693;43.884;20.340;2023-07-16T12:55:00;11.35;;;9.57;;
54795;SDS011;40693;43.884;20.340;2023-07-16T12:57:26;13.10;;;9.60;;
54795;SDS011;40693;43.884;20.340;2023-07-16T12:59:52;10.25;;;9.27;;
54795;SDS011;40693;43.884;20.340;2023-07-16T13:02:18;11.80;;;9.65;;
54795;SDS011;40693;43.884;20.340;2023-07-16T13:04:44;10.63;;;9.15;;
54795;SDS011;40693;43.884;20.340;2023-07-16T13:07:10;10.60;;;9.45;;
54795;SDS011;40693;43.884;20.340;2023-07-16T13:09:36;12.63;;;9.38;;
54795;SDS011;40693;43.884;20.340;2023-07-16T13:12:02;9.63;;;8.63;;
54795;SDS011;40693;43.884;20.340;2023-07-16T13:14:28;11.00;;;9.50;;
54795;SDS011;40693;43.884;20.340;2023-07-16T13:16:53;11.90;;;9.63;;
54795;SDS011;40693;43.884;20.340;2023-07-16T13:19:19;10.52;;;8.82;;
54795;SDS011;40693;43.884;20.340;2023-07-16T13:21:45;10.77;;;9.43;;
54795;SDS011;40693;43.884;20.340;2023-07-16T13:24:11;10.98;;;9.95;;
54795;SDS011;40693;43.884;20.340;2023-07-16T13:26:37;10.88;;;9.23;;
54795;SDS011;40693;43.884;20.340;2023-07-16T13:29:02;10.75;;;9.05;;
54795;SDS011;40693;43.884;20.340;2023-07-16T13:31:28;10.40;;;9.30;;
54795;SDS011;40693;43.884;20.340;2023-07-16T13:33:54;13.40;;;10.07;;
54795;SDS011;40693;43.884;20.340;2023-07-16T13:36:19;11.63;;;10.18;;
54795;SDS011;40693;43.884;20.340;2023-07-16T13:38:45;13.20;;;9.93;;
54795;SDS011;40693;43.884;20.340;2023-07-16T13:41:11;10.10;;;9.10;;
54795;SDS011;40693;43.884;20.340;2023-07-16T13:43:37;11.65;;;9.27;;
54795;SDS011;40693;43.884;20.340;2023-07-16T13:46:03;12.13;;;9.55;;
54795;SDS011;40693;43.884;20.340;2023-07-16T13:48:29;14.18;;;9.80;;
54795;SDS011;40693;43.884;20.340;2023-07-16T13:50:54;13.43;;;9.77;;
54795;SDS011;40693;43.884;20.340;2023-07-16T13:53:20;13.60;;;9.23;;
54795;SDS011;40693;43.884;20.340;2023-07-16T13:55:46;13.25;;;9.32;;
54795;SDS011;40693;43.884;20.340;2023-07-16T13:58:12;16.67;;;10.38;;
54795;SDS011;40693;43.884;20.340;2023-07-16T14:00:39;11.85;;;9.27;;
54795;SDS011;40693;43.884;20.340;2023-07-16T14:03:05;10.55;;;9.55;;
54795;SDS011;40693;43.884;20.340;2023-07-16T14:05:31;12.48;;;10.20;;
54795;SDS011;40693;43.884;20.340;2023-07-16T14:08:03;10.60;;;9.43;;
54795;SDS011;40693;43.884;20.340;2023-07-16T14:10:32;10.98;;;9.27;;
54795;SDS011;40693;43.884;20.340;2023-07-16T14:12:58;12.20;;;9.85;;
54795;SDS011;40693;43.884;20.340;2023-07-16T14:15:24;12.27;;;10.00;;
54795;SDS011;40693;43.884;20.340;2023-07-16T14:17:50;10.68;;;9.57;;